sensor_id;sensor_type;location;lat;lon;timestamp;P1;durP1;ratioP1;P2;durP2;ratioP2
7495;SDS011;3789;47.064;15.482;2022-11-03T00:02:21;6.73;;;4.87;;
7495;SDS011;3789;47.064;15.482;2022-11-03T00:04:53;6.33;;;5.00;;
7495;SDS011;3789;47.064;15.482;2022-11-03T00:07:27;8.30;;;6.00;;
7495;SDS011;3789;47.064;15.482;2022-11-03T00:09:56;8.90;;;5.40;;
7495;SDS011;3789;47.064;15.482;2022-11-03T00:12:33;7.87;;;5.33;;
7495;SDS011;3789;47.064;15.482;2022-11-03T00:15:09;9.27;;;5.90;;
7495;SDS011;3789;47.064;15.482;2022-11-03T00:17:38;8.20;;;5.23;;
7495;SDS011;3789;47.064;15.482;2022-11-03T00:20:10;7.83;;;5.23;;
7495;SDS011;3789;47.064;15.482;2022-11-03T00:22:37;8.20;;;6.13;;
7495;SDS011;3789;47.064;15.482;2022-11-03T00:25:05;7.53;;;5.37;;
7495;SDS011;3789;47.064;15.482;2022-11-03T00:27:34;6.63;;;5.43;;
7495;SDS011;3789;47.064;15.482;2022-11-03T00:30:03;7.73;;;5.17;;
7495;SDS011;3789;47.064;15.482;2022-11-03T00:32:44;5.93;;;5.33;;
7495;SDS011;3789;47.064;15.482;2022-11-03T00:35:11;7.27;;;5.43;;
7495;SDS011;3789;47.064;15.482;2022-11-03T00:37:48;7.27;;;6.20;;
7495;SDS011;3789;47.064;15.482;2022-11-03T00:40:18;8.20;;;6.77;;
7495;SDS011;3789;47.064;15.482;2022-11-03T00:42:46;7.47;;;5.40;;
7495;SDS011;3789;47.064;15.482;2022-11-03T00:45:18;5.97;;;5.37;;
7495;SDS011;3789;47.064;15.482;2022-11-03T00:47:48;6.00;;;5.33;;
7495;SDS011;3789;47.064;15.482;2022-11-03T00:50:34;7.13;;;5.33;;
7495;SDS011;3789;47.064;15.482;2022-11-03T00:53:06;5.30;;;4.50;;
7495;SDS011;3789;47.064;15.482;2022-11-03T00:55:47;8.60;;;4.87;;
7495;SDS011;3789;47.064;15.482;2022-11-03T00:58:24;6.87;;;5.43;;
7495;SDS011;3789;47.064;15.482;2022-11-03T01:00:59;6.93;;;4.83;;
7495;SDS011;3789;47.064;15.482;2022-11-03T01:03:34;8.27;;;5.70;;
7495;SDS011;3789;47.064;15.482;2022-11-03T01:07:04;7.97;;;5.07;;
7495;SDS011;3789;47.064;15.482;2022-11-03T01:09:36;7.10;;;5.33;;
7495;SDS011;3789;47.064;15.482;2022-11-03T01:12:13;6.50;;;5.80;;
7495;SDS011;3789;47.064;15.482;2022-11-03T01:14:50;9.27;;;5.90;;
7495;SDS011;3789;47.064;15.482;2022-11-03T01:17:20;8.33;;;5.80;;
7495;SDS011;3789;47.064;15.482;2022-11-03T01:19:54;7.67;;;4.87;;
7495;SDS011;3789;47.064;15.482;2022-11-03T01:22:23;6.17;;;5.40;;
7495;SDS011;3789;47.064;15.482;2022-11-03T01:24:56;7.23;;;6.00;;
7495;SDS011;3789;47.064;15.482;2022-11-03T01:27:31;7.47;;;5.83;;
7495;SDS011;3789;47.064;15.482;2022-11-03T01:30:05;5.97;;;5.37;;
7495;SDS011;3789;47.064;15.482;2022-11-03T01:32:34;8.80;;;6.10;;
7495;SDS011;3789;47.064;15.482;2022-11-03T01:35:05;7.97;;;5.67;;
7495;SDS011;3789;47.064;15.482;2022-11-03T01:37:41;7.80;;;6.00;;
7495;SDS011;3789;47.064;15.482;2022-11-03T01:40:21;7.13;;;5.80;;
7495;SDS011;3789;47.064;15.482;2022-11-03T01:42:51;8.07;;;6.27;;
7495;SDS011;3789;47.064;15.482;2022-11-03T01:45:20;7.37;;;5.73;;
7495;SDS011;3789;47.064;15.482;2022-11-03T01:47:51;7.50;;;5.17;;
7495;SDS011;3789;47.064;15.482;2022-11-03T01:50:22;7.53;;;5.37;;
7495;SDS011;3789;47.064;15.482;2022-11-03T01:52:54;8.93;;;5.70;;
7495;SDS011;3789;47.064;15.482;2022-11-03T01:55:34;9.07;;;6.20;;
7495;SDS011;3789;47.064;15.482;2022-11-03T01:58:12;6.33;;;5.50;;
7495;SDS011;3789;47.064;15.482;2022-11-03T02:01:08;9.83;;;6.43;;
7495;SDS011;3789;47.064;15.482;2022-11-03T02:03:39;6.97;;;5.90;;
7495;SDS011;3789;47.064;15.482;2022-11-03T02:06:11;8.80;;;7.37;;
7495;SDS011;3789;47.064;15.482;2022-11-03T02:08:50;8.27;;;7.23;;
7495;SDS011;3789;47.064;15.482;2022-11-03T02:11:28;12.40;;;7.17;;
7495;SDS011;3789;47.064;15.482;2022-11-03T02:14:20;9.93;;;7.33;;
7495;SDS011;3789;47.064;15.482;2022-11-03T02:16:49;10.43;;;8.20;;
7495;SDS011;3789;47.064;15.482;2022-11-03T02:19:46;9.67;;;8.67;;
7495;SDS011;3789;47.064;15.482;2022-11-03T02:28:29;9.27;;;8.33;;
7495;SDS011;3789;47.064;15.482;2022-11-03T02:33:50;12.20;;;8.57;;
7495;SDS011;3789;47.064;15.482;2022-11-03T02:36:27;10.60;;;8.87;;
7495;SDS011;3789;47.064;15.482;2022-11-03T02:39:00;11.77;;;8.90;;
7495;SDS011;3789;47.064;15.482;2022-11-03T02:41:44;11.23;;;9.20;;
7495;SDS011;3789;47.064;15.482;2022-11-03T02:44:15;10.33;;;8.30;;
7495;SDS011;3789;47.064;15.482;2022-11-03T02:46:46;9.57;;;8.13;;
7495;SDS011;3789;47.064;15.482;2022-11-03T02:49:17;11.53;;;8.93;;
7495;SDS011;3789;47.064;15.482;2022-11-03T02:51:44;10.73;;;8.30;;
7495;SDS011;3789;47.064;15.482;2022-11-03T02:56:48;7.43;;;6.30;;
7495;SDS011;3789;47.064;15.482;2022-11-03T02:59:21;12.30;;;9.27;;
7495;SDS011;3789;47.064;15.482;2022-11-03T03:01:58;12.77;;;9.70;;
7495;SDS011;3789;47.064;15.482;2022-11-03T03:04:55;12.00;;;9.17;;
7495;SDS011;3789;47.064;15.482;2022-11-03T03:07:25;9.77;;;8.77;;
7495;SDS011;3789;47.064;15.482;2022-11-03T03:10:00;13.40;;;9.83;;
7495;SDS011;3789;47.064;15.482;2022-11-03T03:12:46;14.00;;;9.43;;
7495;SDS011;3789;47.064;15.482;2022-11-03T03:15:15;10.50;;;8.60;;
7495;SDS011;3789;47.064;15.482;2022-11-03T03:17:49;12.57;;;9.20;;
7495;SDS011;3789;47.064;15.482;2022-11-03T03:20:28;10.57;;;7.97;;
7495;SDS011;3789;47.064;15.482;2022-11-03T03:25:45;12.30;;;8.43;;
7495;SDS011;3789;47.064;15.482;2022-11-03T03:28:20;10.03;;;7.97;;
7495;SDS011;3789;47.064;15.482;2022-11-03T03:30:51;13.07;;;7.80;;
7495;SDS011;3789;47.064;15.482;2022-11-03T03:33:22;11.37;;;8.47;;
7495;SDS011;3789;47.064;15.482;2022-11-03T03:35:52;12.17;;;8.20;;
7495;SDS011;3789;47.064;15.482;2022-11-03T03:38:22;13.57;;;8.83;;
7495;SDS011;3789;47.064;15.482;2022-11-03T03:40:54;14.33;;;8.83;;
7495;SDS011;3789;47.064;15.482;2022-11-03T03:43:24;9.17;;;8.27;;
7495;SDS011;3789;47.064;15.482;2022-11-03T03:45:55;11.67;;;9.10;;
7495;SDS011;3789;47.064;15.482;2022-11-03T03:48:26;11.57;;;8.30;;
7495;SDS011;3789;47.064;15.482;2022-11-03T03:50:53;11.00;;;8.97;;
7495;SDS011;3789;47.064;15.482;2022-11-03T03:53:21;12.10;;;8.90;;
7495;SDS011;3789;47.064;15.482;2022-11-03T03:55:54;11.80;;;8.70;;
7495;SDS011;3789;47.064;15.482;2022-11-03T03:58:23;10.83;;;8.70;;
7495;SDS011;3789;47.064;15.482;2022-11-03T04:00:50;9.60;;;8.60;;
7495;SDS011;3789;47.064;15.482;2022-11-03T04:03:18;13.03;;;8.67;;
7495;SDS011;3789;47.064;15.482;2022-11-03T04:05:50;10.13;;;7.57;;
7495;SDS011;3789;47.064;15.482;2022-11-03T04:08:19;11.90;;;8.57;;
7495;SDS011;3789;47.064;15.482;2022-11-03T04:10:46;10.93;;;8.00;;
7495;SDS011;3789;47.064;15.482;2022-11-03T04:13:31;10.80;;;8.17;;
7495;SDS011;3789;47.064;15.482;2022-11-03T04:16:17;11.73;;;8.00;;
7495;SDS011;3789;47.064;15.482;2022-11-03T04:19:03;10.83;;;7.97;;
7495;SDS011;3789;47.064;15.482;2022-11-03T04:21:49;11.37;;;7.13;;
7495;SDS011;3789;47.064;15.482;2022-11-03T04:24:34;13.10;;;7.83;;
7495;SDS011;3789;47.064;15.482;2022-11-03T04:27:04;10.77;;;7.33;;
7495;SDS011;3789;47.064;15.482;2022-11-03T04:29:44;8.63;;;7.70;;
7495;SDS011;3789;47.064;15.482;2022-11-03T04:32:13;11.63;;;7.73;;
7495;SDS011;3789;47.064;15.482;2022-11-03T04:34:42;12.80;;;8.10;;
7495;SDS011;3789;47.064;15.482;2022-11-03T04:37:12;8.80;;;7.63;;
7495;SDS011;3789;47.064;15.482;2022-11-03T04:39:39;8.83;;;7.07;;
7495;SDS011;3789;47.064;15.482;2022-11-03T04:42:20;8.63;;;7.63;;
7495;SDS011;3789;47.064;15.482;2022-11-03T04:44:48;9.90;;;7.47;;
7495;SDS011;3789;47.064;15.482;2022-11-03T04:47:16;12.57;;;8.20;;
7495;SDS011;3789;47.064;15.482;2022-11-03T04:49:44;12.03;;;7.73;;
7495;SDS011;3789;47.064;15.482;2022-11-03T04:52:18;13.60;;;8.20;;
7495;SDS011;3789;47.064;15.482;2022-11-03T04:54:48;9.33;;;6.90;;
7495;SDS011;3789;47.064;15.482;2022-11-03T04:57:17;9.93;;;7.53;;
7495;SDS011;3789;47.064;15.482;2022-11-03T04:59:46;12.27;;;7.47;;
7495;SDS011;3789;47.064;15.482;2022-11-03T05:02:16;8.03;;;6.33;;
7495;SDS011;3789;47.064;15.482;2022-11-03T05:04:46;7.73;;;6.67;;
7495;SDS011;3789;47.064;15.482;2022-11-03T05:09:43;9.23;;;6.40;;
7495;SDS011;3789;47.064;15.482;2022-11-03T05:12:10;7.33;;;6.63;;
7495;SDS011;3789;47.064;15.482;2022-11-03T05:14:37;9.63;;;7.60;;
7495;SDS011;3789;47.064;15.482;2022-11-03T05:17:26;11.77;;;8.00;;
7495;SDS011;3789;47.064;15.482;2022-11-03T05:19:57;11.13;;;7.27;;
7495;SDS011;3789;47.064;15.482;2022-11-03T05:22:30;10.63;;;7.87;;
7495;SDS011;3789;47.064;15.482;2022-11-03T05:27:59;9.87;;;7.97;;
7495;SDS011;3789;47.064;15.482;2022-11-03T05:30:26;12.37;;;8.10;;
7495;SDS011;3789;47.064;15.482;2022-11-03T05:32:53;12.37;;;8.33;;
7495;SDS011;3789;47.064;15.482;2022-11-03T05:35:21;11.83;;;7.97;;
7495;SDS011;3789;47.064;15.482;2022-11-03T05:37:48;11.23;;;8.60;;
7495;SDS011;3789;47.064;15.482;2022-11-03T05:40:21;12.00;;;8.93;;
7495;SDS011;3789;47.064;15.482;2022-11-03T05:42:54;12.93;;;9.37;;
7495;SDS011;3789;47.064;15.482;2022-11-03T05:45:32;8.87;;;7.33;;
7495;SDS011;3789;47.064;15.482;2022-11-03T05:48:01;13.30;;;8.63;;
7495;SDS011;3789;47.064;15.482;2022-11-03T05:50:34;12.37;;;8.73;;
7495;SDS011;3789;47.064;15.482;2022-11-03T05:55:52;11.53;;;9.03;;
7495;SDS011;3789;47.064;15.482;2022-11-03T05:58:26;12.10;;;9.10;;
7495;SDS011;3789;47.064;15.482;2022-11-03T06:01:03;9.37;;;7.97;;
7495;SDS011;3789;47.064;15.482;2022-11-03T06:03:44;12.03;;;8.10;;
7495;SDS011;3789;47.064;15.482;2022-11-03T06:06:23;11.60;;;7.73;;
7495;SDS011;3789;47.064;15.482;2022-11-03T06:08:57;12.50;;;8.70;;
7495;SDS011;3789;47.064;15.482;2022-11-03T06:11:32;13.07;;;9.03;;
7495;SDS011;3789;47.064;15.482;2022-11-03T06:14:07;14.83;;;9.33;;
7495;SDS011;3789;47.064;15.482;2022-11-03T06:16:50;11.03;;;8.70;;
7495;SDS011;3789;47.064;15.482;2022-11-03T06:19:21;14.83;;;8.17;;
7495;SDS011;3789;47.064;15.482;2022-11-03T06:21:49;13.27;;;8.43;;
7495;SDS011;3789;47.064;15.482;2022-11-03T06:24:19;14.07;;;8.90;;
7495;SDS011;3789;47.064;15.482;2022-11-03T06:26:49;10.37;;;7.63;;
7495;SDS011;3789;47.064;15.482;2022-11-03T06:29:19;10.27;;;7.97;;
7495;SDS011;3789;47.064;15.482;2022-11-03T06:31:47;16.77;;;9.13;;
7495;SDS011;3789;47.064;15.482;2022-11-03T06:37:09;11.23;;;7.20;;
7495;SDS011;3789;47.064;15.482;2022-11-03T06:39:52;10.13;;;7.97;;
7495;SDS011;3789;47.064;15.482;2022-11-03T06:42:24;10.80;;;8.03;;
7495;SDS011;3789;47.064;15.482;2022-11-03T06:44:57;11.40;;;8.23;;
7495;SDS011;3789;47.064;15.482;2022-11-03T06:47:25;11.83;;;8.40;;
7495;SDS011;3789;47.064;15.482;2022-11-03T06:49:54;12.73;;;8.00;;
7495;SDS011;3789;47.064;15.482;2022-11-03T06:52:30;8.57;;;7.60;;
7495;SDS011;3789;47.064;15.482;2022-11-03T06:55:22;9.50;;;7.77;;
7495;SDS011;3789;47.064;15.482;2022-11-03T06:57:53;9.23;;;6.50;;
7495;SDS011;3789;47.064;15.482;2022-11-03T07:00:24;8.97;;;6.73;;
7495;SDS011;3789;47.064;15.482;2022-11-03T07:05:34;10.67;;;6.60;;
7495;SDS011;3789;47.064;15.482;2022-11-03T07:08:03;9.13;;;6.63;;
7495;SDS011;3789;47.064;15.482;2022-11-03T07:10:46;8.43;;;5.80;;
7495;SDS011;3789;47.064;15.482;2022-11-03T07:13:18;7.33;;;5.73;;
7495;SDS011;3789;47.064;15.482;2022-11-03T07:15:50;7.33;;;5.80;;
7495;SDS011;3789;47.064;15.482;2022-11-03T07:18:18;7.43;;;5.23;;
7495;SDS011;3789;47.064;15.482;2022-11-03T07:20:47;9.07;;;6.07;;
7495;SDS011;3789;47.064;15.482;2022-11-03T07:23:16;6.83;;;4.67;;
7495;SDS011;3789;47.064;15.482;2022-11-03T07:25:49;6.57;;;4.90;;
7495;SDS011;3789;47.064;15.482;2022-11-03T07:28:23;5.50;;;4.70;;
7495;SDS011;3789;47.064;15.482;2022-11-03T07:30:58;6.73;;;5.00;;
7495;SDS011;3789;47.064;15.482;2022-11-03T07:33:27;7.37;;;5.00;;
7495;SDS011;3789;47.064;15.482;2022-11-03T07:35:56;7.97;;;4.87;;
7495;SDS011;3789;47.064;15.482;2022-11-03T07:38:42;9.23;;;5.10;;
7495;SDS011;3789;47.064;15.482;2022-11-03T07:41:14;5.93;;;5.23;;
7495;SDS011;3789;47.064;15.482;2022-11-03T07:43:48;8.70;;;6.10;;
7495;SDS011;3789;47.064;15.482;2022-11-03T07:46:20;6.73;;;5.10;;
7495;SDS011;3789;47.064;15.482;2022-11-03T07:48:53;8.07;;;5.70;;
7495;SDS011;3789;47.064;15.482;2022-11-03T07:51:37;6.93;;;4.73;;
7495;SDS011;3789;47.064;15.482;2022-11-03T07:54:12;9.70;;;4.73;;
7495;SDS011;3789;47.064;15.482;2022-11-03T07:56:44;7.17;;;4.83;;
7495;SDS011;3789;47.064;15.482;2022-11-03T07:59:19;8.47;;;4.50;;
7495;SDS011;3789;47.064;15.482;2022-11-03T08:01:52;7.10;;;4.90;;
7495;SDS011;3789;47.064;15.482;2022-11-03T08:04:26;7.17;;;4.83;;
7495;SDS011;3789;47.064;15.482;2022-11-03T08:07:35;4.95;;;3.92;;
7495;SDS011;3789;47.064;15.482;2022-11-03T08:10:04;5.77;;;3.53;;
7495;SDS011;3789;47.064;15.482;2022-11-03T08:12:35;8.73;;;4.18;;
7495;SDS011;3789;47.064;15.482;2022-11-03T08:15:04;5.75;;;4.53;;
7495;SDS011;3789;47.064;15.482;2022-11-03T08:17:40;5.68;;;3.85;;
7495;SDS011;3789;47.064;15.482;2022-11-03T08:20:32;5.93;;;3.97;;
7495;SDS011;3789;47.064;15.482;2022-11-03T08:23:02;6.70;;;3.75;;
7495;SDS011;3789;47.064;15.482;2022-11-03T08:25:52;6.43;;;3.67;;
7495;SDS011;3789;47.064;15.482;2022-11-03T08:28:28;5.53;;;3.80;;
7495;SDS011;3789;47.064;15.482;2022-11-03T08:31:00;9.02;;;3.97;;
7495;SDS011;3789;47.064;15.482;2022-11-03T08:33:38;5.03;;;3.25;;
7495;SDS011;3789;47.064;15.482;2022-11-03T08:36:26;5.32;;;3.55;;
7495;SDS011;3789;47.064;15.482;2022-11-03T08:38:55;6.07;;;3.70;;
7495;SDS011;3789;47.064;15.482;2022-11-03T08:41:25;4.38;;;3.10;;
7495;SDS011;3789;47.064;15.482;2022-11-03T08:43:55;4.93;;;3.35;;
7495;SDS011;3789;47.064;15.482;2022-11-03T08:46:25;4.88;;;3.42;;
7495;SDS011;3789;47.064;15.482;2022-11-03T08:49:09;4.70;;;3.38;;
7495;SDS011;3789;47.064;15.482;2022-11-03T08:51:45;5.28;;;3.40;;
7495;SDS011;3789;47.064;15.482;2022-11-03T08:54:13;4.70;;;3.63;;
7495;SDS011;3789;47.064;15.482;2022-11-03T08:56:41;5.93;;;3.80;;
7495;SDS011;3789;47.064;15.482;2022-11-03T08:59:12;9.13;;;3.65;;
7495;SDS011;3789;47.064;15.482;2022-11-03T09:01:47;5.87;;;3.47;;
7495;SDS011;3789;47.064;15.482;2022-11-03T09:04:19;7.32;;;3.67;;
7495;SDS011;3789;47.064;15.482;2022-11-03T09:06:56;4.90;;;3.27;;
7495;SDS011;3789;47.064;15.482;2022-11-03T09:09:26;6.97;;;3.37;;
7495;SDS011;3789;47.064;15.482;2022-11-03T09:12:13;4.80;;;2.97;;
7495;SDS011;3789;47.064;15.482;2022-11-03T09:14:47;3.77;;;2.80;;
7495;SDS011;3789;47.064;15.482;2022-11-03T09:17:15;5.57;;;3.60;;
7495;SDS011;3789;47.064;15.482;2022-11-03T09:19:44;6.00;;;3.50;;
7495;SDS011;3789;47.064;15.482;2022-11-03T09:22:11;6.20;;;3.30;;
7495;SDS011;3789;47.064;15.482;2022-11-03T09:24:42;4.43;;;3.10;;
7495;SDS011;3789;47.064;15.482;2022-11-03T09:27:12;9.15;;;3.53;;
7495;SDS011;3789;47.064;15.482;2022-11-03T09:29:39;5.63;;;3.53;;
7495;SDS011;3789;47.064;15.482;2022-11-03T09:32:29;5.30;;;4.00;;
7495;SDS011;3789;47.064;15.482;2022-11-03T09:35:07;6.53;;;3.38;;
7495;SDS011;3789;47.064;15.482;2022-11-03T09:37:37;4.82;;;3.60;;
7495;SDS011;3789;47.064;15.482;2022-11-03T09:40:06;3.95;;;3.22;;
7495;SDS011;3789;47.064;15.482;2022-11-03T09:42:36;4.10;;;3.38;;
7495;SDS011;3789;47.064;15.482;2022-11-03T09:45:06;5.80;;;3.30;;
7495;SDS011;3789;47.064;15.482;2022-11-03T09:47:38;7.40;;;3.47;;
7495;SDS011;3789;47.064;15.482;2022-11-03T09:50:19;5.57;;;3.65;;
7495;SDS011;3789;47.064;15.482;2022-11-03T09:52:50;6.55;;;3.45;;
7495;SDS011;3789;47.064;15.482;2022-11-03T09:55:26;6.90;;;3.58;;
7495;SDS011;3789;47.064;15.482;2022-11-03T09:58:08;6.70;;;3.50;;
7495;SDS011;3789;47.064;15.482;2022-11-03T10:00:40;5.80;;;3.20;;
7495;SDS011;3789;47.064;15.482;2022-11-03T10:03:12;7.40;;;3.40;;
7495;SDS011;3789;47.064;15.482;2022-11-03T10:05:50;4.50;;;3.15;;
7495;SDS011;3789;47.064;15.482;2022-11-03T10:08:27;4.22;;;3.05;;
7495;SDS011;3789;47.064;15.482;2022-11-03T10:11:01;5.15;;;3.63;;
7495;SDS011;3789;47.064;15.482;2022-11-03T10:13:37;8.60;;;4.35;;
7495;SDS011;3789;47.064;15.482;2022-11-03T10:16:14;5.10;;;3.20;;
7495;SDS011;3789;47.064;15.482;2022-11-03T10:18:48;4.47;;;3.70;;
7495;SDS011;3789;47.064;15.482;2022-11-03T10:21:27;4.80;;;3.53;;
7495;SDS011;3789;47.064;15.482;2022-11-03T10:24:02;6.28;;;3.55;;
7495;SDS011;3789;47.064;15.482;2022-11-03T10:26:51;5.53;;;3.65;;
7495;SDS011;3789;47.064;15.482;2022-11-03T10:29:23;6.13;;;3.80;;
7495;SDS011;3789;47.064;15.482;2022-11-03T10:31:57;6.67;;;4.40;;
7495;SDS011;3789;47.064;15.482;2022-11-03T10:34:37;5.60;;;3.80;;
7495;SDS011;3789;47.064;15.482;2022-11-03T10:37:21;5.40;;;3.28;;
7495;SDS011;3789;47.064;15.482;2022-11-03T10:39:51;7.05;;;3.75;;
7495;SDS011;3789;47.064;15.482;2022-11-03T10:42:23;5.00;;;3.60;;
7495;SDS011;3789;47.064;15.482;2022-11-03T10:47:39;6.72;;;3.47;;
7495;SDS011;3789;47.064;15.482;2022-11-03T10:50:18;8.38;;;4.05;;
7495;SDS011;3789;47.064;15.482;2022-11-03T10:52:54;3.90;;;3.28;;
7495;SDS011;3789;47.064;15.482;2022-11-03T10:55:24;4.65;;;3.65;;
7495;SDS011;3789;47.064;15.482;2022-11-03T10:57:56;6.18;;;3.60;;
7495;SDS011;3789;47.064;15.482;2022-11-03T11:00:24;6.68;;;3.88;;
7495;SDS011;3789;47.064;15.482;2022-11-03T11:02:56;6.85;;;4.03;;
7495;SDS011;3789;47.064;15.482;2022-11-03T11:05:30;5.07;;;3.47;;
7495;SDS011;3789;47.064;15.482;2022-11-03T11:08:21;6.63;;;3.80;;
7495;SDS011;3789;47.064;15.482;2022-11-03T11:10:53;8.38;;;4.07;;
7495;SDS011;3789;47.064;15.482;2022-11-03T11:13:29;6.22;;;4.18;;
7495;SDS011;3789;47.064;15.482;2022-11-03T11:15:59;7.07;;;4.32;;
7495;SDS011;3789;47.064;15.482;2022-11-03T11:23:46;9.07;;;5.03;;
7495;SDS011;3789;47.064;15.482;2022-11-03T11:31:44;5.45;;;4.90;;
7495;SDS011;3789;47.064;15.482;2022-11-03T11:42:13;5.72;;;4.43;;
7495;SDS011;3789;47.064;15.482;2022-11-03T11:44:51;6.93;;;4.80;;
7495;SDS011;3789;47.064;15.482;2022-11-03T11:50:22;5.68;;;4.28;;
7495;SDS011;3789;47.064;15.482;2022-11-03T11:55:59;5.03;;;3.90;;
7495;SDS011;3789;47.064;15.482;2022-11-03T11:58:47;6.63;;;4.60;;
7495;SDS011;3789;47.064;15.482;2022-11-03T12:04:12;6.47;;;4.15;;
7495;SDS011;3789;47.064;15.482;2022-11-03T12:07:00;6.38;;;3.90;;
7495;SDS011;3789;47.064;15.482;2022-11-03T12:09:29;5.78;;;4.47;;
7495;SDS011;3789;47.064;15.482;2022-11-03T12:12:07;7.00;;;3.60;;
7495;SDS011;3789;47.064;15.482;2022-11-03T12:14:37;4.45;;;3.92;;
7495;SDS011;3789;47.064;15.482;2022-11-03T12:19:45;5.57;;;4.15;;
7495;SDS011;3789;47.064;15.482;2022-11-03T12:25:31;6.07;;;4.15;;
7495;SDS011;3789;47.064;15.482;2022-11-03T12:28:03;5.95;;;4.43;;
7495;SDS011;3789;47.064;15.482;2022-11-03T12:30:33;8.18;;;4.97;;
7495;SDS011;3789;47.064;15.482;2022-11-03T12:33:06;4.07;;;3.67;;
7495;SDS011;3789;47.064;15.482;2022-11-03T12:35:38;7.03;;;3.65;;
7495;SDS011;3789;47.064;15.482;2022-11-03T12:38:13;9.20;;;4.22;;
7495;SDS011;3789;47.064;15.482;2022-11-03T12:40:44;5.70;;;4.35;;
7495;SDS011;3789;47.064;15.482;2022-11-03T12:43:16;6.45;;;3.80;;
7495;SDS011;3789;47.064;15.482;2022-11-03T12:45:45;7.78;;;4.72;;
7495;SDS011;3789;47.064;15.482;2022-11-03T12:48:16;4.90;;;4.00;;
7495;SDS011;3789;47.064;15.482;2022-11-03T12:50:55;4.93;;;4.28;;
7495;SDS011;3789;47.064;15.482;2022-11-03T12:53:29;7.40;;;4.63;;
7495;SDS011;3789;47.064;15.482;2022-11-03T12:56:00;6.18;;;4.38;;
7495;SDS011;3789;47.064;15.482;2022-11-03T12:58:29;5.50;;;4.47;;
7495;SDS011;3789;47.064;15.482;2022-11-03T13:01:00;6.13;;;4.80;;
7495;SDS011;3789;47.064;15.482;2022-11-03T13:03:30;8.45;;;4.15;;
7495;SDS011;3789;47.064;15.482;2022-11-03T13:05:59;6.18;;;4.75;;
7495;SDS011;3789;47.064;15.482;2022-11-03T13:08:30;5.50;;;4.30;;
7495;SDS011;3789;47.064;15.482;2022-11-03T13:11:07;8.20;;;4.57;;
7495;SDS011;3789;47.064;15.482;2022-11-03T13:14:01;8.13;;;5.50;;
7495;SDS011;3789;47.064;15.482;2022-11-03T13:16:35;9.48;;;6.13;;
7495;SDS011;3789;47.064;15.482;2022-11-03T13:19:06;7.00;;;4.57;;
7495;SDS011;3789;47.064;15.482;2022-11-03T13:21:36;5.07;;;4.40;;
7495;SDS011;3789;47.064;15.482;2022-11-03T13:24:05;6.77;;;5.07;;
7495;SDS011;3789;47.064;15.482;2022-11-03T13:26:34;8.53;;;5.47;;
7495;SDS011;3789;47.064;15.482;2022-11-03T13:29:04;8.30;;;5.63;;
7495;SDS011;3789;47.064;15.482;2022-11-03T13:31:41;7.80;;;5.40;;
7495;SDS011;3789;47.064;15.482;2022-11-03T13:34:11;8.40;;;5.17;;
7495;SDS011;3789;47.064;15.482;2022-11-03T13:36:41;7.73;;;5.30;;
7495;SDS011;3789;47.064;15.482;2022-11-03T13:39:10;8.80;;;4.90;;
7495;SDS011;3789;47.064;15.482;2022-11-03T13:41:42;7.70;;;5.40;;
7495;SDS011;3789;47.064;15.482;2022-11-03T13:44:13;5.53;;;4.50;;
7495;SDS011;3789;47.064;15.482;2022-11-03T13:46:48;10.03;;;5.77;;
7495;SDS011;3789;47.064;15.482;2022-11-03T13:49:17;8.00;;;5.30;;
7495;SDS011;3789;47.064;15.482;2022-11-03T13:52:09;6.80;;;4.83;;
7495;SDS011;3789;47.064;15.482;2022-11-03T13:54:36;8.50;;;5.90;;
7495;SDS011;3789;47.064;15.482;2022-11-03T13:57:36;6.13;;;4.50;;
7495;SDS011;3789;47.064;15.482;2022-11-03T14:00:25;7.67;;;5.10;;
7495;SDS011;3789;47.064;15.482;2022-11-03T14:02:53;7.57;;;5.10;;
7495;SDS011;3789;47.064;15.482;2022-11-03T14:05:41;6.83;;;5.50;;
7495;SDS011;3789;47.064;15.482;2022-11-03T14:08:11;5.30;;;4.80;;
7495;SDS011;3789;47.064;15.482;2022-11-03T14:10:42;6.90;;;4.90;;
7495;SDS011;3789;47.064;15.482;2022-11-03T14:13:09;7.47;;;5.47;;
7495;SDS011;3789;47.064;15.482;2022-11-03T14:15:46;10.07;;;5.80;;
7495;SDS011;3789;47.064;15.482;2022-11-03T14:18:14;8.10;;;5.90;;
7495;SDS011;3789;47.064;15.482;2022-11-03T14:20:52;5.95;;;5.28;;
7495;SDS011;3789;47.064;15.482;2022-11-03T14:23:20;7.25;;;6.30;;
7495;SDS011;3789;47.064;15.482;2022-11-03T14:25:48;8.33;;;5.83;;
7495;SDS011;3789;47.064;15.482;2022-11-03T14:28:37;12.40;;;6.27;;
7495;SDS011;3789;47.064;15.482;2022-11-03T14:31:07;8.07;;;6.40;;
7495;SDS011;3789;47.064;15.482;2022-11-03T14:33:37;9.10;;;6.03;;
7495;SDS011;3789;47.064;15.482;2022-11-03T14:36:14;8.23;;;5.68;;
7495;SDS011;3789;47.064;15.482;2022-11-03T14:38:51;6.78;;;5.63;;
7495;SDS011;3789;47.064;15.482;2022-11-03T14:41:21;8.30;;;5.25;;
7495;SDS011;3789;47.064;15.482;2022-11-03T14:44:09;7.63;;;6.00;;
7495;SDS011;3789;47.064;15.482;2022-11-03T14:46:39;10.88;;;6.95;;
7495;SDS011;3789;47.064;15.482;2022-11-03T14:49:21;7.95;;;6.38;;
7495;SDS011;3789;47.064;15.482;2022-11-03T14:51:51;9.00;;;6.37;;
7495;SDS011;3789;47.064;15.482;2022-11-03T14:54:21;9.47;;;6.20;;
7495;SDS011;3789;47.064;15.482;2022-11-03T14:56:57;7.50;;;6.07;;
7495;SDS011;3789;47.064;15.482;2022-11-03T14:59:26;9.13;;;5.93;;
7495;SDS011;3789;47.064;15.482;2022-11-03T15:01:56;10.63;;;6.30;;
7495;SDS011;3789;47.064;15.482;2022-11-03T15:04:26;9.40;;;6.30;;
7495;SDS011;3789;47.064;15.482;2022-11-03T15:06:56;11.17;;;6.50;;
7495;SDS011;3789;47.064;15.482;2022-11-03T15:09:25;8.80;;;6.20;;
7495;SDS011;3789;47.064;15.482;2022-11-03T15:11:54;9.27;;;6.03;;
7495;SDS011;3789;47.064;15.482;2022-11-03T15:14:32;7.13;;;6.13;;
7495;SDS011;3789;47.064;15.482;2022-11-03T15:17:01;10.03;;;6.03;;
7495;SDS011;3789;47.064;15.482;2022-11-03T15:19:31;8.03;;;6.47;;
7495;SDS011;3789;47.064;15.482;2022-11-03T15:22:07;8.90;;;6.37;;
7495;SDS011;3789;47.064;15.482;2022-11-03T15:24:37;9.20;;;6.53;;
7495;SDS011;3789;47.064;15.482;2022-11-03T15:27:25;9.13;;;6.50;;
7495;SDS011;3789;47.064;15.482;2022-11-03T15:29:55;9.70;;;6.83;;
7495;SDS011;3789;47.064;15.482;2022-11-03T15:32:24;8.83;;;6.93;;
7495;SDS011;3789;47.064;15.482;2022-11-03T15:35:03;11.07;;;7.43;;
7495;SDS011;3789;47.064;15.482;2022-11-03T15:37:33;10.93;;;7.10;;
7495;SDS011;3789;47.064;15.482;2022-11-03T15:40:04;11.23;;;6.60;;
7495;SDS011;3789;47.064;15.482;2022-11-03T15:42:39;8.97;;;6.57;;
7495;SDS011;3789;47.064;15.482;2022-11-03T15:45:11;11.03;;;6.97;;
7495;SDS011;3789;47.064;15.482;2022-11-03T15:47:43;9.60;;;7.10;;
7495;SDS011;3789;47.064;15.482;2022-11-03T15:50:12;11.50;;;7.63;;
7495;SDS011;3789;47.064;15.482;2022-11-03T15:52:42;9.60;;;7.07;;
7495;SDS011;3789;47.064;15.482;2022-11-03T15:55:13;10.60;;;7.00;;
7495;SDS011;3789;47.064;15.482;2022-11-03T15:57:44;9.17;;;6.60;;
7495;SDS011;3789;47.064;15.482;2022-11-03T16:00:11;8.60;;;6.70;;
7495;SDS011;3789;47.064;15.482;2022-11-03T16:02:42;7.67;;;6.40;;
7495;SDS011;3789;47.064;15.482;2022-11-03T16:05:09;13.03;;;7.77;;
7495;SDS011;3789;47.064;15.482;2022-11-03T16:07:36;9.63;;;7.10;;
7495;SDS011;3789;47.064;15.482;2022-11-03T16:10:05;11.43;;;7.33;;
7495;SDS011;3789;47.064;15.482;2022-11-03T16:12:43;11.80;;;7.77;;
7495;SDS011;3789;47.064;15.482;2022-11-03T16:15:14;10.77;;;6.93;;
7495;SDS011;3789;47.064;15.482;2022-11-03T16:17:43;10.27;;;7.50;;
7495;SDS011;3789;47.064;15.482;2022-11-03T16:20:14;11.80;;;7.50;;
7495;SDS011;3789;47.064;15.482;2022-11-03T16:22:45;10.63;;;7.80;;
7495;SDS011;3789;47.064;15.482;2022-11-03T16:25:19;10.90;;;7.27;;
7495;SDS011;3789;47.064;15.482;2022-11-03T16:27:48;10.47;;;8.40;;
7495;SDS011;3789;47.064;15.482;2022-11-03T16:30:19;11.20;;;8.30;;
7495;SDS011;3789;47.064;15.482;2022-11-03T16:32:49;9.43;;;7.50;;
7495;SDS011;3789;47.064;15.482;2022-11-03T16:35:20;12.30;;;7.13;;
7495;SDS011;3789;47.064;15.482;2022-11-03T16:37:49;12.20;;;8.30;;
7495;SDS011;3789;47.064;15.482;2022-11-03T16:40:18;11.23;;;8.47;;
7495;SDS011;3789;47.064;15.482;2022-11-03T16:42:45;11.30;;;8.20;;